sensor_id;sensor_type;location;lat;lon;timestamp;P1;durP1;ratioP1;P2;durP2;ratioP2
18360;SDS011;9308;48.550;9.108;2023-04-28T00:01:47;7.10;;;5.77;;
18360;SDS011;9308;48.550;9.108;2023-04-28T00:04:13;5.67;;;4.97;;
18360;SDS011;9308;48.550;9.108;2023-04-28T00:06:38;6.73;;;5.23;;
18360;SDS011;9308;48.550;9.108;2023-04-28T00:09:05;5.90;;;5.40;;
18360;SDS011;9308;48.550;9.108;2023-04-28T00:11:32;5.90;;;5.40;;
18360;SDS011;9308;48.550;9.108;2023-04-28T00:13:57;6.40;;;5.80;;
18360;SDS011;9308;48.550;9.108;2023-04-28T00:16:22;8.27;;;6.67;;
18360;SDS011;9308;48.550;9.108;2023-04-28T00:18:48;7.20;;;6.00;;
18360;SDS011;9308;48.550;9.108;2023-04-28T00:21:13;6.60;;;6.00;;
18360;SDS011;9308;48.550;9.108;2023-04-28T00:23:39;7.93;;;6.10;;
18360;SDS011;9308;48.550;9.108;2023-04-28T00:26:04;6.13;;;5.53;;
18360;SDS011;9308;48.550;9.108;2023-04-28T00:28:30;5.10;;;4.70;;
18360;SDS011;9308;48.550;9.108;2023-04-28T00:30:55;6.37;;;5.77;;
18360;SDS011;9308;48.550;9.108;2023-04-28T00:33:21;5.60;;;5.20;;
18360;SDS011;9308;48.550;9.108;2023-04-28T00:35:46;6.23;;;5.63;;
18360;SDS011;9308;48.550;9.108;2023-04-28T00:38:11;5.97;;;5.47;;
18360;SDS011;9308;48.550;9.108;2023-04-28T00:40:37;7.87;;;5.53;;
18360;SDS011;9308;48.550;9.108;2023-04-28T00:43:04;7.00;;;5.77;;
18360;SDS011;9308;48.550;9.108;2023-04-28T00:45:30;6.10;;;5.50;;
18360;SDS011;9308;48.550;9.108;2023-04-28T00:47:56;7.00;;;5.70;;
18360;SDS011;9308;48.550;9.108;2023-04-28T00:50:22;6.27;;;5.77;;
18360;SDS011;9308;48.550;9.108;2023-04-28T00:52:49;5.43;;;5.00;;
18360;SDS011;9308;48.550;9.108;2023-04-28T00:55:15;5.90;;;5.50;;
18360;SDS011;9308;48.550;9.108;2023-04-28T00:57:41;5.70;;;5.20;;
18360;SDS011;9308;48.550;9.108;2023-04-28T01:00:07;5.83;;;5.17;;
18360;SDS011;9308;48.550;9.108;2023-04-28T01:02:34;6.80;;;6.20;;
18360;SDS011;9308;48.550;9.108;2023-04-28T01:05:00;5.97;;;5.37;;
18360;SDS011;9308;48.550;9.108;2023-04-28T01:07:26;7.20;;;5.63;;
18360;SDS011;9308;48.550;9.108;2023-04-28T01:09:52;6.90;;;5.10;;
18360;SDS011;9308;48.550;9.108;2023-04-28T01:12:18;5.00;;;4.50;;
18360;SDS011;9308;48.550;9.108;2023-04-28T01:14:43;6.90;;;5.43;;
18360;SDS011;9308;48.550;9.108;2023-04-28T01:17:09;6.07;;;5.50;;
18360;SDS011;9308;48.550;9.108;2023-04-28T01:19:35;5.47;;;4.97;;
18360;SDS011;9308;48.550;9.108;2023-04-28T01:22:01;5.23;;;4.90;;
18360;SDS011;9308;48.550;9.108;2023-04-28T01:24:26;6.10;;;5.33;;
18360;SDS011;9308;48.550;9.108;2023-04-28T01:26:51;5.73;;;5.33;;
18360;SDS011;9308;48.550;9.108;2023-04-28T01:29:17;4.93;;;4.50;;
18360;SDS011;9308;48.550;9.108;2023-04-28T01:31:42;5.93;;;5.40;;
18360;SDS011;9308;48.550;9.108;2023-04-28T01:34:08;4.60;;;4.20;;
18360;SDS011;9308;48.550;9.108;2023-04-28T01:36:33;5.63;;;5.13;;
18360;SDS011;9308;48.550;9.108;2023-04-28T01:38:59;5.13;;;4.63;;
18360;SDS011;9308;48.550;9.108;2023-04-28T01:41:24;8.90;;;5.20;;
18360;SDS011;9308;48.550;9.108;2023-04-28T01:43:50;5.67;;;5.00;;
18360;SDS011;9308;48.550;9.108;2023-04-28T01:46:16;5.30;;;4.80;;
18360;SDS011;9308;48.550;9.108;2023-04-28T01:48:41;5.77;;;5.20;;
18360;SDS011;9308;48.550;9.108;2023-04-28T01:51:07;5.80;;;5.30;;
18360;SDS011;9308;48.550;9.108;2023-04-28T01:53:32;4.87;;;4.47;;
18360;SDS011;9308;48.550;9.108;2023-04-28T01:55:58;10.70;;;5.27;;
18360;SDS011;9308;48.550;9.108;2023-04-28T01:58:23;6.50;;;5.10;;
18360;SDS011;9308;48.550;9.108;2023-04-28T02:00:49;5.70;;;5.20;;
18360;SDS011;9308;48.550;9.108;2023-04-28T02:03:15;5.30;;;4.77;;
18360;SDS011;9308;48.550;9.108;2023-04-28T02:05:40;5.00;;;4.60;;
18360;SDS011;9308;48.550;9.108;2023-04-28T02:08:05;5.33;;;4.93;;
18360;SDS011;9308;48.550;9.108;2023-04-28T02:10:31;4.80;;;4.40;;
18360;SDS011;9308;48.550;9.108;2023-04-28T02:12:57;5.80;;;4.67;;
18360;SDS011;9308;48.550;9.108;2023-04-28T02:15:22;6.30;;;5.70;;
18360;SDS011;9308;48.550;9.108;2023-04-28T02:17:48;5.27;;;4.90;;
18360;SDS011;9308;48.550;9.108;2023-04-28T02:20:13;5.50;;;5.00;;
18360;SDS011;9308;48.550;9.108;2023-04-28T02:22:39;5.57;;;4.77;;
18360;SDS011;9308;48.550;9.108;2023-04-28T02:25:05;4.83;;;4.43;;
18360;SDS011;9308;48.550;9.108;2023-04-28T02:27:33;4.80;;;4.40;;
18360;SDS011;9308;48.550;9.108;2023-04-28T02:30:00;4.97;;;4.57;;
18360;SDS011;9308;48.550;9.108;2023-04-28T02:32:29;5.10;;;4.63;;
18360;SDS011;9308;48.550;9.108;2023-04-28T02:34:55;5.80;;;5.03;;
18360;SDS011;9308;48.550;9.108;2023-04-28T02:37:21;4.93;;;4.53;;
18360;SDS011;9308;48.550;9.108;2023-04-28T02:39:47;5.63;;;5.10;;
18360;SDS011;9308;48.550;9.108;2023-04-28T02:42:12;6.67;;;6.07;;
18360;SDS011;9308;48.550;9.108;2023-04-28T02:44:38;4.70;;;4.30;;
18360;SDS011;9308;48.550;9.108;2023-04-28T02:47:03;4.43;;;4.03;;
18360;SDS011;9308;48.550;9.108;2023-04-28T02:49:29;4.90;;;4.43;;
18360;SDS011;9308;48.550;9.108;2023-04-28T02:51:54;5.00;;;4.60;;
18360;SDS011;9308;48.550;9.108;2023-04-28T02:54:20;4.67;;;4.37;;
18360;SDS011;9308;48.550;9.108;2023-04-28T02:56:52;4.93;;;4.53;;
18360;SDS011;9308;48.550;9.108;2023-04-28T02:59:18;5.80;;;5.20;;
18360;SDS011;9308;48.550;9.108;2023-04-28T03:01:44;5.10;;;4.67;;
18360;SDS011;9308;48.550;9.108;2023-04-28T03:04:10;5.33;;;4.93;;
18360;SDS011;9308;48.550;9.108;2023-04-28T03:06:35;5.67;;;5.03;;
18360;SDS011;9308;48.550;9.108;2023-04-28T03:09:00;5.13;;;4.73;;
18360;SDS011;9308;48.550;9.108;2023-04-28T03:11:26;5.87;;;5.37;;
18360;SDS011;9308;48.550;9.108;2023-04-28T03:13:51;6.67;;;6.10;;
18360;SDS011;9308;48.550;9.108;2023-04-28T03:16:17;7.60;;;6.80;;
18360;SDS011;9308;48.550;9.108;2023-04-28T03:18:42;7.67;;;7.00;;
18360;SDS011;9308;48.550;9.108;2023-04-28T03:21:07;7.50;;;6.90;;
18360;SDS011;9308;48.550;9.108;2023-04-28T03:23:33;8.97;;;7.03;;
18360;SDS011;9308;48.550;9.108;2023-04-28T03:25:58;8.40;;;7.60;;
18360;SDS011;9308;48.550;9.108;2023-04-28T03:28:24;8.30;;;7.40;;
18360;SDS011;9308;48.550;9.108;2023-04-28T03:30:50;7.93;;;7.20;;
18360;SDS011;9308;48.550;9.108;2023-04-28T03:33:15;7.47;;;6.77;;
18360;SDS011;9308;48.550;9.108;2023-04-28T03:35:41;7.57;;;6.87;;
18360;SDS011;9308;48.550;9.108;2023-04-28T03:38:07;8.10;;;7.40;;
18360;SDS011;9308;48.550;9.108;2023-04-28T03:40:32;9.63;;;7.40;;
18360;SDS011;9308;48.550;9.108;2023-04-28T03:42:58;8.03;;;7.33;;
18360;SDS011;9308;48.550;9.108;2023-04-28T03:45:23;8.03;;;7.07;;
18360;SDS011;9308;48.550;9.108;2023-04-28T03:47:49;8.47;;;7.67;;
18360;SDS011;9308;48.550;9.108;2023-04-28T03:50:14;8.77;;;7.97;;
18360;SDS011;9308;48.550;9.108;2023-04-28T03:52:39;8.33;;;6.90;;
18360;SDS011;9308;48.550;9.108;2023-04-28T03:55:05;8.33;;;7.50;;
18360;SDS011;9308;48.550;9.108;2023-04-28T03:57:31;7.70;;;6.90;;
18360;SDS011;9308;48.550;9.108;2023-04-28T03:59:56;8.53;;;7.73;;
18360;SDS011;9308;48.550;9.108;2023-04-28T04:02:22;10.30;;;7.77;;
18360;SDS011;9308;48.550;9.108;2023-04-28T04:04:47;7.43;;;6.73;;
18360;SDS011;9308;48.550;9.108;2023-04-28T04:07:13;8.60;;;7.00;;
18360;SDS011;9308;48.550;9.108;2023-04-28T04:09:38;7.63;;;7.00;;
18360;SDS011;9308;48.550;9.108;2023-04-28T04:12:04;7.40;;;6.70;;
18360;SDS011;9308;48.550;9.108;2023-04-28T04:14:30;6.70;;;6.10;;
18360;SDS011;9308;48.550;9.108;2023-04-28T04:19:26;6.20;;;5.70;;
18360;SDS011;9308;48.550;9.108;2023-04-28T04:21:52;7.60;;;6.90;;
18360;SDS011;9308;48.550;9.108;2023-04-28T04:24:17;6.70;;;5.70;;
18360;SDS011;9308;48.550;9.108;2023-04-28T04:26:43;6.77;;;6.17;;
18360;SDS011;9308;48.550;9.108;2023-04-28T04:29:09;6.13;;;5.63;;
18360;SDS011;9308;48.550;9.108;2023-04-28T04:31:35;6.40;;;5.80;;
18360;SDS011;9308;48.550;9.108;2023-04-28T04:34:00;5.60;;;5.00;;
18360;SDS011;9308;48.550;9.108;2023-04-28T04:36:26;6.27;;;5.73;;
18360;SDS011;9308;48.550;9.108;2023-04-28T04:38:51;6.80;;;6.17;;
18360;SDS011;9308;48.550;9.108;2023-04-28T04:41:17;5.90;;;5.40;;
18360;SDS011;9308;48.550;9.108;2023-04-28T04:43:44;6.83;;;6.23;;
18360;SDS011;9308;48.550;9.108;2023-04-28T04:46:10;7.07;;;6.40;;
18360;SDS011;9308;48.550;9.108;2023-04-28T04:48:36;7.53;;;6.33;;
18360;SDS011;9308;48.550;9.108;2023-04-28T04:51:01;7.10;;;6.57;;
18360;SDS011;9308;48.550;9.108;2023-04-28T04:53:27;7.77;;;7.17;;
18360;SDS011;9308;48.550;9.108;2023-04-28T04:55:52;6.90;;;6.23;;
18360;SDS011;9308;48.550;9.108;2023-04-28T04:58:18;6.63;;;6.07;;
18360;SDS011;9308;48.550;9.108;2023-04-28T05:00:43;7.07;;;6.47;;
18360;SDS011;9308;48.550;9.108;2023-04-28T05:03:09;7.23;;;6.30;;
18360;SDS011;9308;48.550;9.108;2023-04-28T05:05:34;6.87;;;6.27;;
18360;SDS011;9308;48.550;9.108;2023-04-28T05:08:00;7.20;;;6.50;;
18360;SDS011;9308;48.550;9.108;2023-04-28T05:10:26;7.27;;;6.67;;
18360;SDS011;9308;48.550;9.108;2023-04-28T05:12:51;6.67;;;5.97;;
18360;SDS011;9308;48.550;9.108;2023-04-28T05:15:17;6.93;;;6.33;;
18360;SDS011;9308;48.550;9.108;2023-04-28T05:17:42;6.63;;;6.03;;
18360;SDS011;9308;48.550;9.108;2023-04-28T05:20:08;7.47;;;6.80;;
18360;SDS011;9308;48.550;9.108;2023-04-28T05:22:33;6.23;;;5.73;;
18360;SDS011;9308;48.550;9.108;2023-04-28T05:24:59;6.33;;;5.83;;
18360;SDS011;9308;48.550;9.108;2023-04-28T05:27:24;6.90;;;6.30;;
18360;SDS011;9308;48.550;9.108;2023-04-28T05:29:50;6.87;;;6.23;;
18360;SDS011;9308;48.550;9.108;2023-04-28T05:32:15;6.90;;;6.27;;
18360;SDS011;9308;48.550;9.108;2023-04-28T05:34:41;7.30;;;6.70;;
18360;SDS011;9308;48.550;9.108;2023-04-28T05:37:06;7.30;;;6.70;;
18360;SDS011;9308;48.550;9.108;2023-04-28T05:39:31;6.77;;;6.17;;
18360;SDS011;9308;48.550;9.108;2023-04-28T05:41:57;6.80;;;6.20;;
18360;SDS011;9308;48.550;9.108;2023-04-28T05:44:22;7.40;;;6.70;;
18360;SDS011;9308;48.550;9.108;2023-04-28T05:46:48;6.13;;;5.53;;
18360;SDS011;9308;48.550;9.108;2023-04-28T05:49:13;6.43;;;5.80;;
18360;SDS011;9308;48.550;9.108;2023-04-28T05:51:39;5.60;;;5.20;;
18360;SDS011;9308;48.550;9.108;2023-04-28T05:54:04;5.50;;;5.10;;
18360;SDS011;9308;48.550;9.108;2023-04-28T05:56:30;5.50;;;5.00;;
18360;SDS011;9308;48.550;9.108;2023-04-28T05:58:55;5.73;;;5.30;;
18360;SDS011;9308;48.550;9.108;2023-04-28T06:01:22;6.90;;;6.27;;
18360;SDS011;9308;48.550;9.108;2023-04-28T06:03:48;6.47;;;5.87;;
18360;SDS011;9308;48.550;9.108;2023-04-28T06:06:13;6.07;;;5.53;;
18360;SDS011;9308;48.550;9.108;2023-04-28T06:08:38;6.63;;;6.13;;
18360;SDS011;9308;48.550;9.108;2023-04-28T06:11:04;6.50;;;5.90;;
18360;SDS011;9308;48.550;9.108;2023-04-28T06:13:30;6.53;;;5.83;;
18360;SDS011;9308;48.550;9.108;2023-04-28T06:15:56;5.93;;;5.40;;
18360;SDS011;9308;48.550;9.108;2023-04-28T06:18:21;6.70;;;6.07;;
18360;SDS011;9308;48.550;9.108;2023-04-28T06:20:48;6.50;;;5.90;;
18360;SDS011;9308;48.550;9.108;2023-04-28T06:23:14;6.50;;;5.90;;
18360;SDS011;9308;48.550;9.108;2023-04-28T06:25:39;6.50;;;5.90;;
18360;SDS011;9308;48.550;9.108;2023-04-28T06:28:05;7.73;;;6.90;;
18360;SDS011;9308;48.550;9.108;2023-04-28T06:30:32;5.90;;;5.47;;
18360;SDS011;9308;48.550;9.108;2023-04-28T06:32:59;6.30;;;5.70;;
18360;SDS011;9308;48.550;9.108;2023-04-28T06:35:24;5.27;;;4.87;;
18360;SDS011;9308;48.550;9.108;2023-04-28T06:37:50;5.73;;;5.23;;
18360;SDS011;9308;48.550;9.108;2023-04-28T06:40:15;5.90;;;5.40;;
18360;SDS011;9308;48.550;9.108;2023-04-28T06:42:41;5.03;;;4.63;;
18360;SDS011;9308;48.550;9.108;2023-04-28T06:45:06;5.77;;;5.20;;
18360;SDS011;9308;48.550;9.108;2023-04-28T06:47:32;6.17;;;5.67;;
18360;SDS011;9308;48.550;9.108;2023-04-28T06:49:58;6.00;;;5.40;;
18360;SDS011;9308;48.550;9.108;2023-04-28T06:52:23;5.73;;;5.03;;
18360;SDS011;9308;48.550;9.108;2023-04-28T06:54:49;5.43;;;5.00;;
18360;SDS011;9308;48.550;9.108;2023-04-28T06:57:15;5.73;;;5.20;;
18360;SDS011;9308;48.550;9.108;2023-04-28T06:59:41;5.97;;;5.40;;
18360;SDS011;9308;48.550;9.108;2023-04-28T07:02:08;5.20;;;4.80;;
18360;SDS011;9308;48.550;9.108;2023-04-28T07:04:34;6.10;;;5.60;;
18360;SDS011;9308;48.550;9.108;2023-04-28T07:07:00;6.07;;;5.50;;
18360;SDS011;9308;48.550;9.108;2023-04-28T07:09:26;6.43;;;5.13;;
18360;SDS011;9308;48.550;9.108;2023-04-28T07:11:51;6.27;;;5.67;;
18360;SDS011;9308;48.550;9.108;2023-04-28T07:14:17;5.83;;;5.10;;
18360;SDS011;9308;48.550;9.108;2023-04-28T07:16:42;6.90;;;5.53;;
18360;SDS011;9308;48.550;9.108;2023-04-28T07:19:07;5.50;;;5.00;;
18360;SDS011;9308;48.550;9.108;2023-04-28T07:21:33;4.77;;;4.43;;
18360;SDS011;9308;48.550;9.108;2023-04-28T07:23:58;6.13;;;5.63;;
18360;SDS011;9308;48.550;9.108;2023-04-28T07:26:24;6.10;;;5.50;;
18360;SDS011;9308;48.550;9.108;2023-04-28T07:28:49;5.93;;;5.43;;
18360;SDS011;9308;48.550;9.108;2023-04-28T07:31:15;5.67;;;5.17;;
18360;SDS011;9308;48.550;9.108;2023-04-28T07:33:41;5.50;;;4.90;;
18360;SDS011;9308;48.550;9.108;2023-04-28T07:36:06;5.33;;;4.83;;
18360;SDS011;9308;48.550;9.108;2023-04-28T07:38:35;6.07;;;5.47;;
18360;SDS011;9308;48.550;9.108;2023-04-28T07:41:01;5.23;;;4.83;;
18360;SDS011;9308;48.550;9.108;2023-04-28T07:43:28;5.93;;;5.33;;
18360;SDS011;9308;48.550;9.108;2023-04-28T07:45:54;7.50;;;6.90;;
18360;SDS011;9308;48.550;9.108;2023-04-28T07:48:19;7.27;;;6.50;;
18360;SDS011;9308;48.550;9.108;2023-04-28T07:50:45;5.93;;;5.40;;
18360;SDS011;9308;48.550;9.108;2023-04-28T07:53:11;5.83;;;5.33;;
18360;SDS011;9308;48.550;9.108;2023-04-28T07:55:36;6.17;;;5.30;;
18360;SDS011;9308;48.550;9.108;2023-04-28T07:58:02;5.50;;;4.80;;
18360;SDS011;9308;48.550;9.108;2023-04-28T08:00:28;5.90;;;5.40;;
18360;SDS011;9308;48.550;9.108;2023-04-28T08:02:54;6.10;;;5.60;;
18360;SDS011;9308;48.550;9.108;2023-04-28T08:05:20;5.43;;;5.03;;
18360;SDS011;9308;48.550;9.108;2023-04-28T08:07:46;6.03;;;5.53;;
18360;SDS011;9308;48.550;9.108;2023-04-28T08:10:11;5.40;;;4.93;;
18360;SDS011;9308;48.550;9.108;2023-04-28T08:12:37;6.00;;;5.50;;
18360;SDS011;9308;48.550;9.108;2023-04-28T08:15:03;5.70;;;5.30;;
18360;SDS011;9308;48.550;9.108;2023-04-28T08:17:29;5.80;;;5.30;;
18360;SDS011;9308;48.550;9.108;2023-04-28T08:19:54;5.57;;;5.03;;
18360;SDS011;9308;48.550;9.108;2023-04-28T08:22:20;5.03;;;4.63;;
18360;SDS011;9308;48.550;9.108;2023-04-28T08:24:45;6.37;;;5.23;;
18360;SDS011;9308;48.550;9.108;2023-04-28T08:27:11;5.97;;;5.47;;
18360;SDS011;9308;48.550;9.108;2023-04-28T08:29:36;5.77;;;5.20;;
18360;SDS011;9308;48.550;9.108;2023-04-28T08:32:02;6.50;;;5.83;;
18360;SDS011;9308;48.550;9.108;2023-04-28T08:34:30;5.70;;;5.20;;
18360;SDS011;9308;48.550;9.108;2023-04-28T08:36:58;6.00;;;5.50;;
18360;SDS011;9308;48.550;9.108;2023-04-28T08:39:24;5.90;;;5.17;;
18360;SDS011;9308;48.550;9.108;2023-04-28T08:41:51;5.43;;;5.03;;
18360;SDS011;9308;48.550;9.108;2023-04-28T08:44:17;6.00;;;5.50;;
18360;SDS011;9308;48.550;9.108;2023-04-28T08:46:43;5.30;;;4.90;;
18360;SDS011;9308;48.550;9.108;2023-04-28T08:49:16;5.97;;;5.37;;
18360;SDS011;9308;48.550;9.108;2023-04-28T08:51:49;5.03;;;4.63;;
18360;SDS011;9308;48.550;9.108;2023-04-28T08:54:16;6.00;;;5.40;;
18360;SDS011;9308;48.550;9.108;2023-04-28T08:56:44;5.67;;;4.83;;
18360;SDS011;9308;48.550;9.108;2023-04-28T08:59:10;5.63;;;5.07;;
18360;SDS011;9308;48.550;9.108;2023-04-28T09:01:37;5.07;;;4.67;;
18360;SDS011;9308;48.550;9.108;2023-04-28T09:04:03;5.03;;;4.53;;
18360;SDS011;9308;48.550;9.108;2023-04-28T09:06:38;5.23;;;4.73;;
18360;SDS011;9308;48.550;9.108;2023-04-28T09:09:22;4.37;;;4.07;;
18360;SDS011;9308;48.550;9.108;2023-04-28T09:11:52;4.90;;;4.50;;
18360;SDS011;9308;48.550;9.108;2023-04-28T09:14:20;4.23;;;3.93;;
18360;SDS011;9308;48.550;9.108;2023-04-28T09:16:46;4.80;;;4.50;;
18360;SDS011;9308;48.550;9.108;2023-04-28T09:19:13;4.70;;;4.30;;
18360;SDS011;9308;48.550;9.108;2023-04-28T09:21:47;5.50;;;5.00;;
18360;SDS011;9308;48.550;9.108;2023-04-28T09:24:28;5.80;;;5.30;;
18360;SDS011;9308;48.550;9.108;2023-04-28T09:26:55;5.20;;;4.70;;
18360;SDS011;9308;48.550;9.108;2023-04-28T09:29:21;4.50;;;4.20;;
18360;SDS011;9308;48.550;9.108;2023-04-28T09:31:47;4.07;;;3.77;;
18360;SDS011;9308;48.550;9.108;2023-04-28T09:34:12;4.40;;;4.10;;
18360;SDS011;9308;48.550;9.108;2023-04-28T09:36:38;3.73;;;3.43;;
18360;SDS011;9308;48.550;9.108;2023-04-28T09:39:03;3.57;;;3.27;;
18360;SDS011;9308;48.550;9.108;2023-04-28T09:41:38;3.37;;;3.17;;
18360;SDS011;9308;48.550;9.108;2023-04-28T09:44:09;3.23;;;3.03;;
18360;SDS011;9308;48.550;9.108;2023-04-28T09:46:45;2.70;;;2.50;;
18360;SDS011;9308;48.550;9.108;2023-04-28T09:49:11;3.50;;;3.20;;
18360;SDS011;9308;48.550;9.108;2023-04-28T09:51:38;3.17;;;2.97;;
18360;SDS011;9308;48.550;9.108;2023-04-28T09:54:04;2.87;;;2.67;;
18360;SDS011;9308;48.550;9.108;2023-04-28T09:56:31;3.27;;;3.00;;
18360;SDS011;9308;48.550;9.108;2023-04-28T09:58:59;2.70;;;2.50;;
18360;SDS011;9308;48.550;9.108;2023-04-28T10:01:39;3.00;;;2.80;;
18360;SDS011;9308;48.550;9.108;2023-04-28T10:04:05;2.40;;;2.20;;
18360;SDS011;9308;48.550;9.108;2023-04-28T10:06:34;2.53;;;2.33;;
18360;SDS011;9308;48.550;9.108;2023-04-28T10:09:04;2.30;;;2.10;;
18360;SDS011;9308;48.550;9.108;2023-04-28T10:11:29;2.23;;;2.03;;
18360;SDS011;9308;48.550;9.108;2023-04-28T10:13:55;2.27;;;2.10;;
18360;SDS011;9308;48.550;9.108;2023-04-28T10:16:21;3.00;;;2.80;;
18360;SDS011;9308;48.550;9.108;2023-04-28T10:18:47;2.50;;;2.40;;
18360;SDS011;9308;48.550;9.108;2023-04-28T10:21:15;2.40;;;2.20;;
18360;SDS011;9308;48.550;9.108;2023-04-28T10:23:50;1.90;;;1.80;;
18360;SDS011;9308;48.550;9.108;2023-04-28T10:27:09;2.30;;;2.20;;
18360;SDS011;9308;48.550;9.108;2023-04-28T10:29:23;2.03;;;1.93;;
18360;SDS011;9308;48.550;9.108;2023-04-28T10:34:41;1.73;;;1.63;;
18360;SDS011;9308;48.550;9.108;2023-04-28T10:37:07;2.00;;;1.80;;
18360;SDS011;9308;48.550;9.108;2023-04-28T10:39:32;1.90;;;1.80;;
18360;SDS011;9308;48.550;9.108;2023-04-28T10:41:58;2.13;;;2.03;;
18360;SDS011;9308;48.550;9.108;2023-04-28T10:46:58;2.10;;;2.00;;
18360;SDS011;9308;48.550;9.108;2023-04-28T11:00:44;0.97;;;0.97;;
18360;SDS011;9308;48.550;9.108;2023-04-28T11:06:26;1.10;;;1.00;;
18360;SDS011;9308;48.550;9.108;2023-04-28T11:08:53;1.10;;;1.10;;
18360;SDS011;9308;48.550;9.108;2023-04-28T11:11:22;2.03;;;0.80;;
18360;SDS011;9308;48.550;9.108;2023-04-28T11:13:50;0.90;;;0.90;;
18360;SDS011;9308;48.550;9.108;2023-04-28T11:16:19;1.00;;;0.90;;
18360;SDS011;9308;48.550;9.108;2023-04-28T11:18:56;0.90;;;0.90;;
18360;SDS011;9308;48.550;9.108;2023-04-28T11:21:29;0.80;;;0.80;;
18360;SDS011;9308;48.550;9.108;2023-04-28T11:23:55;0.70;;;0.70;;
18360;SDS011;9308;48.550;9.108;2023-04-28T11:26:22;0.70;;;0.70;;
18360;SDS011;9308;48.550;9.108;2023-04-28T11:28:49;17.07;;;12.70;;
18360;SDS011;9308;48.550;9.108;2023-04-28T11:31:19;1.60;;;1.50;;
18360;SDS011;9308;48.550;9.108;2023-04-28T11:34:03;2.47;;;1.03;;
18360;SDS011;9308;48.550;9.108;2023-04-28T11:36:34;0.97;;;0.97;;
18360;SDS011;9308;48.550;9.108;2023-04-28T11:39:01;1.00;;;1.00;;
18360;SDS011;9308;48.550;9.108;2023-04-28T11:41:32;1.10;;;1.10;;
18360;SDS011;9308;48.550;9.108;2023-04-28T11:44:14;0.87;;;0.70;;
18360;SDS011;9308;48.550;9.108;2023-04-28T11:46:48;0.90;;;0.90;;
18360;SDS011;9308;48.550;9.108;2023-04-28T11:49:19;31.30;;;20.23;;
18360;SDS011;9308;48.550;9.108;2023-04-28T11:51:49;1.47;;;1.37;;
18360;SDS011;9308;48.550;9.108;2023-04-28T11:56:47;1.00;;;1.00;;
18360;SDS011;9308;48.550;9.108;2023-04-28T11:59:13;0.70;;;0.70;;
18360;SDS011;9308;48.550;9.108;2023-04-28T12:01:48;0.60;;;0.60;;
18360;SDS011;9308;48.550;9.108;2023-04-28T12:04:25;0.80;;;0.80;;
18360;SDS011;9308;48.550;9.108;2023-04-28T12:07:06;0.87;;;0.87;;
18360;SDS011;9308;48.550;9.108;2023-04-28T12:09:38;1.10;;;1.00;;
18360;SDS011;9308;48.550;9.108;2023-04-28T12:12:11;0.73;;;0.73;;
18360;SDS011;9308;48.550;9.108;2023-04-28T12:17:26;1.50;;;1.40;;
18360;SDS011;9308;48.550;9.108;2023-04-28T12:19:56;1.57;;;1.00;;
18360;SDS011;9308;48.550;9.108;2023-04-28T12:22:23;0.83;;;0.83;;
18360;SDS011;9308;48.550;9.108;2023-04-28T12:27:33;0.60;;;0.60;;
18360;SDS011;9308;48.550;9.108;2023-04-28T12:30:25;1.10;;;1.00;;
18360;SDS011;9308;48.550;9.108;2023-04-28T12:32:49;1.20;;;0.87;;
18360;SDS011;9308;48.550;9.108;2023-04-28T12:35:15;1.17;;;0.93;;
18360;SDS011;9308;48.550;9.108;2023-04-28T12:37:42;10.87;;;8.40;;
18360;SDS011;9308;48.550;9.108;2023-04-28T12:40:08;0.90;;;0.90;;
18360;SDS011;9308;48.550;9.108;2023-04-28T12:42:34;1.30;;;0.97;;
18360;SDS011;9308;48.550;9.108;2023-04-28T12:45:00;1.50;;;0.80;;
18360;SDS011;9308;48.550;9.108;2023-04-28T12:47:26;1.10;;;1.00;;
18360;SDS011;9308;48.550;9.108;2023-04-28T12:49:51;1.97;;;0.97;;
18360;SDS011;9308;48.550;9.108;2023-04-28T12:52:17;0.93;;;0.93;;
18360;SDS011;9308;48.550;9.108;2023-04-28T12:54:43;1.00;;;1.00;;
18360;SDS011;9308;48.550;9.108;2023-04-28T12:57:14;0.97;;;0.97;;
18360;SDS011;9308;48.550;9.108;2023-04-28T12:59:41;0.80;;;0.80;;
18360;SDS011;9308;48.550;9.108;2023-04-28T13:02:07;1.47;;;0.90;;
18360;SDS011;9308;48.550;9.108;2023-04-28T13:04:32;1.47;;;0.80;;
18360;SDS011;9308;48.550;9.108;2023-04-28T13:06:58;0.90;;;0.90;;
18360;SDS011;9308;48.550;9.108;2023-04-28T13:09:24;0.83;;;0.83;;
18360;SDS011;9308;48.550;9.108;2023-04-28T13:11:50;0.93;;;0.93;;
18360;SDS011;9308;48.550;9.108;2023-04-28T13:14:18;1.00;;;1.00;;
18360;SDS011;9308;48.550;9.108;2023-04-28T13:16:46;9.70;;;8.70;;
18360;SDS011;9308;48.550;9.108;2023-04-28T13:19:12;1.53;;;1.10;;
18360;SDS011;9308;48.550;9.108;2023-04-28T13:21:41;0.90;;;0.90;;
18360;SDS011;9308;48.550;9.108;2023-04-28T13:24:07;1.00;;;1.00;;
18360;SDS011;9308;48.550;9.108;2023-04-28T13:26:32;1.10;;;1.00;;
18360;SDS011;9308;48.550;9.108;2023-04-28T13:28:58;1.07;;;0.93;;
18360;SDS011;9308;48.550;9.108;2023-04-28T13:31:25;1.10;;;1.00;;
18360;SDS011;9308;48.550;9.108;2023-04-28T13:33:50;1.50;;;1.10;;
18360;SDS011;9308;48.550;9.108;2023-04-28T13:36:16;0.90;;;0.90;;
18360;SDS011;9308;48.550;9.108;2023-04-28T13:38:42;0.70;;;0.70;;
18360;SDS011;9308;48.550;9.108;2023-04-28T13:41:12;0.70;;;0.70;;
18360;SDS011;9308;48.550;9.108;2023-04-28T13:43:38;1.03;;;1.03;;
18360;SDS011;9308;48.550;9.108;2023-04-28T13:46:04;0.93;;;0.93;;
18360;SDS011;9308;48.550;9.108;2023-04-28T13:48:33;1.23;;;1.07;;
18360;SDS011;9308;48.550;9.108;2023-04-28T13:51:01;0.90;;;0.90;;
18360;SDS011;9308;48.550;9.108;2023-04-28T13:53:28;0.90;;;0.90;;
18360;SDS011;9308;48.550;9.108;2023-04-28T13:55:54;0.90;;;0.90;;
18360;SDS011;9308;48.550;9.108;2023-04-28T13:58:28;0.70;;;0.70;;
18360;SDS011;9308;48.550;9.108;2023-04-28T14:00:54;1.00;;;1.00;;
18360;SDS011;9308;48.550;9.108;2023-04-28T14:03:21;1.00;;;1.00;;
18360;SDS011;9308;48.550;9.108;2023-04-28T14:05:47;1.00;;;1.00;;
18360;SDS011;9308;48.550;9.108;2023-04-28T14:08:15;0.90;;;0.90;;
18360;SDS011;9308;48.550;9.108;2023-04-28T14:10:41;1.20;;;1.10;;
18360;SDS011;9308;48.550;9.108;2023-04-28T14:13:07;1.40;;;1.30;;
18360;SDS011;9308;48.550;9.108;2023-04-28T14:15:32;1.00;;;1.00;;
18360;SDS011;9308;48.550;9.108;2023-04-28T14:17:57;1.20;;;1.20;;
18360;SDS011;9308;48.550;9.108;2023-04-28T14:20:23;1.20;;;1.10;;
18360;SDS011;9308;48.550;9.108;2023-04-28T14:22:48;1.23;;;1.20;;
18360;SDS011;9308;48.550;9.108;2023-04-28T14:25:15;1.23;;;1.00;;
18360;SDS011;9308;48.550;9.108;2023-04-28T14:27:41;3.03;;;2.60;;
18360;SDS011;9308;48.550;9.108;2023-04-28T14:30:07;1.77;;;1.67;;
18360;SDS011;9308;48.550;9.108;2023-04-28T14:32:33;1.73;;;1.63;;
18360;SDS011;9308;48.550;9.108;2023-04-28T14:34:59;2.00;;;1.90;;
18360;SDS011;9308;48.550;9.108;2023-04-28T14:37:25;2.73;;;2.53;;
18360;SDS011;9308;48.550;9.108;2023-04-28T14:39:50;3.10;;;2.77;;
18360;SDS011;9308;48.550;9.108;2023-04-28T14:42:16;2.37;;;2.17;;
18360;SDS011;9308;48.550;9.108;2023-04-28T14:44:42;2.30;;;2.20;;
18360;SDS011;9308;48.550;9.108;2023-04-28T14:47:08;3.13;;;1.90;;
18360;SDS011;9308;48.550;9.108;2023-04-28T14:49:33;1.50;;;1.40;;
18360;SDS011;9308;48.550;9.108;2023-04-28T14:51:59;1.53;;;1.43;;
18360;SDS011;9308;48.550;9.108;2023-04-28T14:54:25;2.30;;;1.90;;
18360;SDS011;9308;48.550;9.108;2023-04-28T14:56:50;3.10;;;1.70;;
18360;SDS011;9308;48.550;9.108;2023-04-28T14:59:16;1.90;;;1.80;;
18360;SDS011;9308;48.550;9.108;2023-04-28T15:01:42;1.50;;;1.40;;
18360;SDS011;9308;48.550;9.108;2023-04-28T15:04:08;2.30;;;2.00;;
18360;SDS011;9308;48.550;9.108;2023-04-28T15:06:34;1.30;;;1.20;;
18360;SDS011;9308;48.550;9.108;2023-04-28T15:09:00;1.30;;;1.20;;
18360;SDS011;9308;48.550;9.108;2023-04-28T15:11:25;1.40;;;1.30;;
18360;SDS011;9308;48.550;9.108;2023-04-28T15:13:51;3.53;;;1.30;;
18360;SDS011;9308;48.550;9.108;2023-04-28T15:16:16;2.70;;;1.50;;
18360;SDS011;9308;48.550;9.108;2023-04-28T15:18:43;1.60;;;1.50;;
18360;SDS011;9308;48.550;9.108;2023-04-28T15:21:08;1.60;;;1.50;;
18360;SDS011;9308;48.550;9.108;2023-04-28T15:23:34;1.77;;;1.67;;
18360;SDS011;9308;48.550;9.108;2023-04-28T15:25:59;1.73;;;1.63;;
18360;SDS011;9308;48.550;9.108;2023-04-28T15:28:25;1.73;;;1.63;;